Карточка аэропорта USNN

Внимание!
Информация на этой странице в стадии наполнения.
Если вы не увидели какой-то информации, или заметили неточность - пожалуйста сообщите нам!
Спасибо!
Команда RU-STAFF
Название аэропортаНижневартовск
Название аэропорта (англ.)Nizhnevartovsk
Превышение177 ft. (53.9 m.)
Координаты60°57', 76°28.998'
Высота перехода800m
Эшелон переходаQFE>=756mm:FL040; QFE<756=>729:FL050; QFE<729:FL060
Коды ответчика5630-5633
Зона ОрВДТюмень РПИ (USTV)
Данные METARUSNN 172200Z 31001MPS 9999 OVC022 08/08 Q1016 R03/0///65 NOSIG RMK QFE758
Проноз погоды (TAF)USNN 171959Z 1721/1821 33003MPS 6000 -SHRA FEW005 SCT017CB TEMPO 1721/1723 VRB01MPS 1200 BR BKN003 BKN016CB TEMPO 1723/1803 0300 FG BKN002 BKN016CB BECMG 1803/1804 9999 NSW BKN016 BECMG 1804/1806 35005G13MPS
NOTAMshow/hide NOTAM
AWOS   TABLE

Информация о ВПП

ВПП Длина ВПП (м.) Покрытие Курс ВПП Частота ILS
033200Асфальтобетон27110.5
213200Асфальтобетон207111.9

Диспетчерские позиции

Позывной Наименование органа УВД Частота
USNN_TWRНижневартовск - Вышка118.100
USNN_APPНижневартовск - Круг120.400



Спутниковое изображение